Comber, Canada
Current Conditions -  °F | °C
As of 3:00 AM on Sunday 21 Dec 2014 (Local Time) from CYQG Reporting Station
Overcast Overcast  
Wind Chill: 28°   Ceiling: 2700
Heat Index: 28°   Visibility: 10mi
Dew Point: 25°   Wind: 2mph
Humidity: 86%   Direction: 90°E
Pressure: 30.29"   Gusts: NA
Location:  42.23°N, 82.55°W
Report Text: CYQG 210800Z 09002KT 10SM OVC027 M02/M04 A3029 RMK SC8 SLP267
Loading
Personal Weather Stations






























Interactive Weather Map New forecast layout! Learn more

10-Day Weather Forecast

Advertisements
Track Severe Weather on mobile